Time;durP1;ratioP1;P1;durP2;ratioP2;P2;SDS_P1;SDS_P2;PMS_P1;PMS_P2;Temp;Humidity;BMP_temperature;BMP_pressure;BME280_temperature;BME280_humidity;BME280_pressure;Samples;Min_cycle;Max_cycle;Signal;HPM_P1;HPM_P2
2022/07/14 00:00:36;;;;;;;10.90;2.00;;;;;;;16.09;100.00;102141.97;2615759;36;20073;-58
2022/07/14 00:03:07;;;;;;;8.87;2.00;;;;;;;15.96;100.00;102144.97;2615656;36;20046;-58
2022/07/14 00:05:36;;;;;;;8.88;2.28;;;;;;;15.91;100.00;102141.81;2616006;36;20030;-59
2022/07/14 00:08:05;;;;;;;8.90;2.00;;;;;;;15.86;100.00;102135.97;2615514;36;20035;-56
2022/07/14 00:10:33;;;;;;;7.90;1.98;;;;;;;15.88;100.00;102133.94;2616140;31;20283;-57
2022/07/14 00:13:02;;;;;;;7.95;2.28;;;;;;;15.91;100.00;102129.09;2615236;36;20031;-57
2022/07/14 00:15:31;;;;;;;9.88;2.25;;;;;;;15.92;100.00;102138.13;2614781;36;20057;-58
2022/07/14 00:18:00;;;;;;;8.70;2.20;;;;;;;15.95;100.00;102140.53;2615818;36;20506;-57
2022/07/14 00:20:31;;;;;;;8.85;2.10;;;;;;;15.94;100.00;102127.97;2615420;36;20034;-58
2022/07/14 00:23:00;;;;;;;8.20;1.95;;;;;;;15.85;100.00;102118.78;2610308;36;20049;-57
2022/07/14 00:25:29;;;;;;;13.15;2.22;;;;;;;15.89;100.00;102116.66;2615583;36;20035;-62
2022/07/14 00:27:58;;;;;;;8.82;2.53;;;;;;;15.88;100.00;102113.06;2616440;36;20621;-57
2022/07/14 00:30:26;;;;;;;11.40;1.90;;;;;;;15.89;100.00;102119.38;2613972;36;20034;-58
2022/07/14 00:32:55;;;;;;;7.55;2.17;;;;;;;15.84;100.00;102117.09;2615868;31;20038;-58
2022/07/14 00:35:23;;;;;;;7.63;2.33;;;;;;;15.77;100.00;102114.03;2615165;36;20042;-58
2022/07/14 00:37:54;;;;;;;10.37;2.03;;;;;;;15.70;100.00;102112.88;2615395;36;20641;-59
2022/07/14 00:40:22;;;;;;;10.98;2.38;;;;;;;15.63;100.00;102108.16;2615327;31;20030;-57
2022/07/14 00:42:52;;;;;;;9.30;2.92;;;;;;;15.58;100.00;102122.13;2616113;36;20447;-57
2022/07/14 00:45:24;;;;;;;8.38;2.97;;;;;;;15.48;100.00;102110.41;2615937;36;20440;-57
2022/07/14 00:47:52;;;;;;;5.97;2.03;;;;;;;15.44;100.00;102122.50;2615328;36;20943;-57
2022/07/14 00:50:22;;;;;;;7.90;2.23;;;;;;;15.33;100.00;102113.47;2615751;31;20432;-57
2022/07/14 00:52:51;;;;;;;;;;;;;;;15.17;100.00;102115.84;2616009;36;20468;-60
2022/07/14 00:55:22;;;;;;;5.55;2.25;;;;;;;15.09;100.00;102124.66;2615466;36;19946;-55
2022/07/14 00:57:50;;;;;;;7.88;2.13;;;;;;;15.07;100.00;102135.63;2615700;36;20038;-55
2022/07/14 01:00:20;;;;;;;5.90;2.13;;;;;;;14.92;100.00;102136.13;2615203;31;20038;-58
2022/07/14 01:02:48;;;;;;;;;;;;;;;14.88;100.00;102140.94;2616243;36;20040;-58
2022/07/14 01:05:22;;;;;;;9.30;2.20;;;;;;;14.79;100.00;102145.28;2615129;47;19946;-57
2022/07/14 01:07:51;;;;;;;5.57;2.15;;;;;;;14.77;100.00;102143.72;2615293;36;20299;-56
2022/07/14 01:10:22;;;;;;;11.98;2.65;;;;;;;14.69;100.00;102150.66;2616077;36;20049;-58
2022/07/14 01:12:51;;;;;;;7.05;2.00;;;;;;;14.63;100.00;102153.03;2615473;36;20030;-58
2022/07/14 01:15:21;;;;;;;13.50;2.47;;;;;;;14.57;100.00;102153.53;2615549;36;20030;-56
2022/07/14 01:17:50;;;;;;;5.10;1.92;;;;;;;14.53;100.00;102156.50;2615995;36;20423;-55
2022/07/14 01:20:19;;;;;;;5.05;2.17;;;;;;;14.49;100.00;102149.59;2615589;36;20034;-56
2022/07/14 01:22:50;;;;;;;8.00;2.28;;;;;;;14.52;100.00;102148.50;2615248;36;20034;-61
2022/07/14 01:25:21;;;;;;;10.25;1.95;;;;;;;14.52;100.00;102146.63;2615102;36;20066;-61
2022/07/14 01:27:49;;;;;;;8.57;2.35;;;;;;;14.49;100.00;102146.06;2615602;31;20042;-58
2022/07/14 01:30:18;;;;;;;9.93;2.53;;;;;;;14.39;100.00;102145.09;2615179;36;20042;-57
2022/07/14 01:32:46;;;;;;;6.82;2.58;;;;;;;14.28;100.00;102144.16;2615215;36;20026;-58
2022/07/14 01:35:15;;;;;;;9.13;2.75;;;;;;;14.22;100.00;102143.81;2615208;36;20038;-58
2022/07/14 01:37:43;;;;;;;7.40;2.60;;;;;;;14.19;100.00;102129.53;2615714;36;20041;-58
2022/07/14 01:40:15;;;;;;;9.87;2.20;;;;;;;14.14;100.00;102136.34;2615238;36;20042;-58
2022/07/14 01:42:43;;;;;;;8.30;2.38;;;;;;;14.15;100.00;102129.94;2615609;36;20275;-58
2022/07/14 01:45:14;;;;;;;6.78;2.33;;;;;;;14.10;100.00;102129.44;2615261;36;20034;-56
2022/07/14 01:47:43;;;;;;;9.43;2.38;;;;;;;14.05;100.00;102131.69;2615164;36;20038;-56
2022/07/14 01:50:11;;;;;;;8.57;2.63;;;;;;;13.99;100.00;102133.91;2615400;36;20583;-60
2022/07/14 01:52:39;;;;;;;7.57;2.30;;;;;;;13.86;100.00;102133.22;2615126;36;20540;-59
2022/07/14 01:55:14;;;;;;;8.93;2.58;;;;;;;13.84;100.00;102124.38;2615324;36;20038;-55
2022/07/14 01:57:42;;;;;;;6.13;2.40;;;;;;;13.76;100.00;102130.38;2615523;36;20042;-57
2022/07/14 02:00:12;;;;;;;7.07;2.40;;;;;;;13.72;100.00;102133.47;2615697;36;20042;-56
2022/07/14 02:02:40;;;;;;;5.82;2.35;;;;;;;13.72;100.00;102128.94;2615428;36;20046;-54
2022/07/14 02:05:11;;;;;;;6.20;2.55;;;;;;;13.74;100.00;102126.97;2615556;36;20037;-57
2022/07/14 02:07:40;;;;;;;8.85;2.25;;;;;;;13.71;100.00;102129.91;2615511;36;20052;-57
2022/07/14 02:12:53;;;;;;;4.82;2.50;;;;;;;13.56;100.00;102121.22;2615394;36;20122;-58
2022/07/14 02:15:21;;;;;;;9.27;2.40;;;;;;;13.54;100.00;102128.56;2615822;36;20435;-57
2022/07/14 02:17:50;;;;;;;7.13;2.60;;;;;;;13.49;100.00;102130.81;2615329;36;20075;-58
2022/07/14 02:20:18;;;;;;;6.38;2.13;;;;;;;13.43;100.00;102131.31;2615009;36;20102;-58
2022/07/14 02:22:46;;;;;;;5.47;2.47;;;;;;;13.33;100.00;102141.97;2615151;36;20030;-61
2022/07/14 02:25:15;;;;;;;9.20;2.50;;;;;;;13.29;100.00;102135.94;2614742;36;20440;-58
2022/07/14 02:27:43;;;;;;;6.72;2.38;;;;;;;13.28;100.00;102126.09;2615515;36;20042;-60
2022/07/14 02:30:15;;;;;;;8.63;2.65;;;;;;;13.25;100.00;102137.16;2615351;31;20039;-55
2022/07/14 02:32:43;;;;;;;5.90;2.50;;;;;;;13.18;100.00;102133.22;2615458;36;20058;-54
2022/07/14 02:35:11;;;;;;;9.52;2.80;;;;;;;13.20;100.00;102125.84;2615083;36;20030;-58
2022/07/14 02:37:39;;;;;;;13.77;3.15;;;;;;;13.20;100.00;102120.44;2615397;36;20042;-57
2022/07/14 02:40:09;;;;;;;30.00;4.93;;;;;;;13.19;100.00;102118.75;2614968;36;20057;-60
2022/07/14 02:42:37;;;;;;;8.88;4.90;;;;;;;13.19;100.00;102126.84;2615311;36;20034;-58
2022/07/14 02:45:06;;;;;;;11.70;4.63;;;;;;;13.06;100.00;102134.19;2615475;36;20440;-56
2022/07/14 02:47:37;;;;;;;11.15;5.78;;;;;;;13.01;100.00;102131.00;2615294;36;20064;-57
2022/07/14 02:50:07;;;;;;;9.38;4.53;;;;;;;12.81;100.00;102128.03;2614859;36;20057;-57
2022/07/14 02:52:35;;;;;;;15.43;5.22;;;;;;;12.68;100.00;102124.56;2614938;36;20030;-58
2022/07/14 02:55:03;;;;;;;12.32;5.28;;;;;;;12.69;100.00;102137.06;2615335;36;20042;-61
2022/07/14 02:57:32;;;;;;;12.95;4.88;;;;;;;12.79;100.00;102133.56;2615634;36;20371;-58
2022/07/14 03:00:00;;;;;;;12.10;6.37;;;;;;;12.77;100.00;102134.63;2617141;36;20567;-57
2022/07/14 03:02:29;;;;;;;9.00;4.93;;;;;;;12.79;100.00;102133.56;2617240;36;20162;-59
2022/07/14 03:05:02;;;;;;;8.90;4.50;;;;;;;12.73;100.00;102131.31;2616184;36;20039;-57
2022/07/14 03:07:30;;;;;;;9.30;4.15;;;;;;;12.72;100.00;102134.13;2616214;36;20412;-58
2022/07/14 03:09:58;;;;;;;8.17;4.93;;;;;;;12.69;100.00;102139.75;2615431;36;20035;-56
2022/07/14 03:12:26;;;;;;;11.25;4.32;;;;;;;12.54;100.00;102145.34;2615472;36;20026;-57
2022/07/14 03:14:55;;;;;;;8.60;4.53;;;;;;;12.54;100.00;102145.34;2616066;36;20598;-55
2022/07/14 03:17:24;;;;;;;11.75;4.70;;;;;;;12.45;100.00;102143.38;2615938;36;20030;-58
2022/07/14 03:19:53;;;;;;;10.38;4.22;;;;;;;12.37;100.00;102135.88;2615673;36;20035;-60
2022/07/14 03:22:24;;;;;;;12.05;4.68;;;;;;;12.39;100.00;102135.75;2615981;36;20463;-59
2022/07/14 03:24:52;;;;;;;8.90;4.07;;;;;;;12.34;100.00;102129.84;2615908;31;20030;-58
2022/07/14 03:27:20;;;;;;;6.78;3.70;;;;;;;12.30;100.00;102125.66;2616476;31;20396;-58
2022/07/14 03:29:49;;;;;;;10.87;3.67;;;;;;;12.29;100.00;102127.47;2615793;36;20038;-57
2022/07/14 03:32:17;;;;;;;7.25;3.45;;;;;;;12.22;100.00;102121.69;2616163;31;20042;-56
2022/07/14 03:34:45;;;;;;;11.48;3.28;;;;;;;12.20;100.00;102131.72;2615657;36;20022;-59
2022/07/14 03:37:14;;;;;;;7.40;3.77;;;;;;;12.14;100.00;102125.94;2615871;36;20046;-57
2022/07/14 03:39:46;;;;;;;8.73;3.20;;;;;;;12.11;100.00;102116.22;2615789;36;20284;-54
2022/07/14 03:42:15;;;;;;;8.38;3.75;;;;;;;12.13;100.00;102126.91;2615831;36;20043;-59
2022/07/14 03:44:44;;;;;;;10.90;3.65;;;;;;;12.16;100.00;102130.25;2615976;36;20034;-57
2022/07/14 03:47:13;;;;;;;8.65;3.67;;;;;;;12.17;100.00;102129.25;2616154;36;20065;-60
2022/07/14 03:49:41;;;;;;;6.13;3.33;;;;;;;12.17;100.00;102126.56;2615568;36;20574;-59
2022/07/14 03:52:10;;;;;;;9.25;3.40;;;;;;;12.16;100.00;102121.28;2615622;36;20275;-58
2022/07/14 03:54:38;;;;;;;10.45;3.55;;;;;;;12.13;100.00;102124.22;2615628;36;20559;-57
2022/07/14 03:57:09;;;;;;;8.70;3.63;;;;;;;12.16;100.00;102126.69;2615768;36;20060;-57
2022/07/14 03:59:40;;;;;;;10.43;3.22;;;;;;;12.23;100.00;102126.13;2615588;36;20038;-57
2022/07/14 04:02:09;;;;;;;8.90;3.53;;;;;;;12.28;100.00;102131.16;2616443;31;20624;-59
2022/07/14 04:04:37;;;;;;;9.05;3.20;;;;;;;12.28;100.00;102136.56;2615342;36;20056;-57
2022/07/14 04:07:07;;;;;;;13.32;5.20;;;;;;;12.20;100.00;102126.31;2615904;36;20081;-58
2022/07/14 04:09:35;;;;;;;8.57;3.40;;;;;;;12.30;100.00;102126.50;2615408;36;20069;-58
2022/07/14 04:12:04;;;;;;;8.65;3.72;;;;;;;12.29;100.00;102123.91;2616254;36;20431;-57
2022/07/14 04:14:35;;;;;;;8.98;3.85;;;;;;;12.22;100.00;102121.69;2615408;36;20035;-56
2022/07/14 04:17:03;;;;;;;10.10;4.28;;;;;;;12.26;100.00;102130.41;2616623;36;20052;-58
2022/07/14 04:19:31;;;;;;;9.50;4.13;;;;;;;12.33;100.00;102120.03;2615686;36;20039;-60
2022/07/14 04:22:00;;;;;;;9.70;4.15;;;;;;;12.35;100.00;102118.94;2616389;31;20085;-60
2022/07/14 04:24:28;;;;;;;10.77;4.35;;;;;;;12.40;100.00;102121.28;2615343;31;20602;-59
2022/07/14 04:26:56;;;;;;;11.32;4.63;;;;;;;12.38;100.00;102113.28;2610154;36;20034;-58
2022/07/14 04:29:25;;;;;;;10.82;3.90;;;;;;;12.43;100.00;102110.25;2615379;36;20065;-60
2022/07/14 04:31:56;;;;;;;8.63;4.22;;;;;;;12.46;100.00;102109.16;2615762;36;20031;-59
2022/07/14 04:34:24;;;;;;;11.95;3.92;;;;;;;12.50;100.00;102111.50;2615784;36;20465;-58
2022/07/14 04:36:52;;;;;;;12.13;3.95;;;;;;;12.58;100.00;102114.44;2615959;36;20439;-58
2022/07/14 04:39:20;;;;;;;10.38;4.25;;;;;;;12.67;100.00;102107.47;2615470;36;20022;-58
2022/07/14 04:41:49;;;;;;;7.25;3.85;;;;;;;12.75;100.00;102114.97;2616489;36;20069;-58
2022/07/14 04:44:23;;;;;;;8.77;3.10;;;;;;;12.83;100.00;102115.25;2616768;36;20539;-58
2022/07/14 04:46:51;;;;;;;8.90;4.00;;;;;;;12.90;100.00;102115.63;2615761;31;20291;-61
2022/07/14 04:52:06;;;;;;;11.38;3.58;;;;;;;13.03;100.00;102115.50;2615932;36;20065;-60
2022/07/14 04:54:36;;;;;;;9.90;3.45;;;;;;;13.09;100.00;102115.91;2615322;31;20061;-58
2022/07/14 04:57:06;;;;;;;11.35;3.15;;;;;;;13.14;100.00;102107.41;2615702;36;20026;-59
2022/07/14 04:59:35;;;;;;;9.80;3.28;;;;;;;13.22;100.00;102110.38;2615595;36;20037;-58
2022/07/14 05:02:04;;;;;;;10.05;3.60;;;;;;;13.20;100.00;102119.59;2615146;31;20030;-56
2022/07/14 05:04:35;;;;;;;10.73;3.78;;;;;;;13.31;100.00;102120.44;2614858;36;20042;-56
2022/07/14 05:07:03;;;;;;;10.15;3.80;;;;;;;13.44;100.00;102123.06;2615160;36;20451;-58
2022/07/14 05:09:33;;;;;;;9.65;3.60;;;;;;;13.57;100.00;102116.66;2614883;36;20030;-57
2022/07/14 05:12:05;;;;;;;11.43;3.90;;;;;;;13.63;100.00;102121.56;2614867;36;20528;-57
2022/07/14 05:14:40;;;;;;;11.98;4.00;;;;;;;13.64;100.00;102117.88;2617139;36;20432;-59
2022/07/14 05:17:08;;;;;;;7.43;3.83;;;;;;;13.75;100.00;102125.97;2615894;31;20038;-58
2022/07/14 05:19:39;;;;;;;11.02;3.83;;;;;;;13.76;100.00;102114.16;2614867;31;20073;-59
2022/07/14 05:22:08;;;;;;;13.18;3.80;;;;;;;13.80;100.00;102121.03;2612201;36;20564;-58
2022/07/14 05:24:37;;;;;;;10.20;4.28;;;;;;;13.88;100.00;102119.53;2614862;36;20034;-58
2022/07/14 05:27:06;;;;;;;10.23;4.22;;;;;;;13.93;100.00;102125.44;2614824;36;20041;-57
2022/07/14 05:29:34;;;;;;;18.33;5.32;;;;;;;14.04;100.00;102119.97;2615089;36;20043;-58
2022/07/14 05:32:03;;;;;;;11.70;4.05;;;;;;;14.18;100.00;102122.41;2612744;36;20051;-58
2022/07/14 05:34:32;;;;;;;14.77;3.72;;;;;;;14.22;100.00;102119.44;2610237;36;20031;-58
2022/07/14 05:37:04;;;;;;;7.47;3.33;;;;;;;14.28;100.00;102117.09;2615397;36;20074;-59
2022/07/14 05:39:32;;;;;;;7.65;3.50;;;;;;;14.36;100.00;102119.97;2614854;36;20030;-60
2022/07/14 05:42:02;;;;;;;11.25;3.40;;;;;;;14.60;100.00;102116.16;2615464;36;20038;-56
2022/07/14 05:44:30;;;;;;;8.88;4.20;;;;;;;14.74;100.00;102122.28;2615406;36;20038;-59
2022/07/14 05:46:58;;;;;;;9.57;3.63;;;;;;;14.68;100.00;102129.97;2615131;31;20031;-59
2022/07/14 05:49:26;;;;;;;13.07;3.95;;;;;;;14.78;100.00;102121.03;2614749;36;20034;-58
2022/07/14 05:51:55;;;;;;;6.28;3.13;;;;;;;14.96;100.00;102122.16;2614348;36;20035;-58
2022/07/14 05:54:26;;;;;;;9.60;3.07;;;;;;;14.95;100.00;102125.84;2614950;36;20034;-57
2022/07/14 05:56:54;;;;;;;8.77;3.00;;;;;;;15.03;100.00;102123.34;2615231;36;20637;-59
2022/07/14 05:59:22;;;;;;;10.85;3.25;;;;;;;15.07;100.00;102124.78;2615221;36;20034;-58
2022/07/14 06:01:50;;;;;;;10.93;3.10;;;;;;;15.35;100.00;102122.31;2615251;36;20048;-58
2022/07/14 06:04:19;;;;;;;10.70;3.37;;;;;;;15.30;100.00;102126.47;2615191;36;20034;-58
2022/07/14 06:06:48;;;;;;;9.48;3.30;;;;;;;15.18;100.00;102131.09;2615369;36;20070;-57
2022/07/14 06:09:17;;;;;;;;;;;;;;;15.21;100.00;102125.44;2615601;36;20552;-56
2022/07/14 06:11:48;;;;;;;9.48;2.88;;;;;;;15.56;100.00;102134.97;2615682;36;19950;-58
2022/07/14 06:14:17;;;;;;;8.25;3.13;;;;;;;15.74;100.00;102140.63;2615211;36;20042;-58
2022/07/14 06:16:45;;;;;;;7.25;2.90;;;;;;;15.75;100.00;102137.75;2615286;36;20037;-58
2022/07/14 06:19:14;;;;;;;11.88;2.67;;;;;;;15.79;100.00;102134.78;2615363;36;20042;-58
2022/07/14 06:21:42;;;;;;;10.37;3.13;;;;;;;16.09;100.00;102137.44;2615169;36;20057;-59
2022/07/14 06:24:11;;;;;;;8.40;2.67;;;;;;;16.57;100.00;102132.13;2615339;36;20065;-64
2022/07/14 06:26:39;;;;;;;6.93;2.72;;;;;;;16.80;100.00;102138.13;2617129;36;20035;-58
2022/07/14 06:29:10;;;;;;;8.73;2.60;;;;;;;17.37;100.00;102127.22;2617161;36;20414;-57
2022/07/14 06:31:39;;;;;;;9.80;2.00;;;;;;;17.99;100.00;102123.91;2615388;36;20039;-58
2022/07/14 06:34:07;;;;;;;3.40;1.70;;;;;;;18.50;100.00;102116.88;2615412;31;20511;-57
2022/07/14 06:36:35;;;;;;;6.63;1.55;;;;;;;18.12;100.00;102116.19;2615836;36;20497;-57
2022/07/14 06:39:04;;;;;;;7.13;2.00;;;;;;;17.48;100.00;102118.03;2614981;36;20031;-56
2022/07/14 06:41:32;;;;;;;5.57;1.75;;;;;;;17.98;100.00;102108.59;2615271;36;20737;-57
2022/07/14 06:44:00;;;;;;;8.57;1.92;;;;;;;18.44;100.00;102103.88;2614966;36;20046;-58
2022/07/14 06:46:32;;;;;;;9.07;1.80;;;;;;;18.66;100.00;102107.13;2615380;36;20041;-57
2022/07/14 06:49:01;;;;;;;8.60;2.13;;;;;;;18.11;100.00;102109.06;2615245;31;20030;-59
2022/07/14 06:51:29;;;;;;;9.43;2.08;;;;;;;17.74;100.00;102096.38;2615474;36;20034;-57
2022/07/14 06:53:58;;;;;;;4.75;1.80;;;;;;;17.80;100.00;102094.88;2615563;36;20097;-58
2022/07/14 06:56:26;;;;;;;4.00;1.40;;;;;;;18.28;100.00;102098.31;2614532;36;20030;-58
2022/07/14 06:58:54;;;;;;;7.45;1.73;;;;;;;18.82;100.00;102071.78;2614930;36;20064;-57
2022/07/14 07:01:22;;;;;;;4.90;1.60;;;;;;;19.22;100.00;102070.31;2615450;36;20034;-57
2022/07/14 07:03:53;;;;;;;8.18;1.65;;;;;;;19.34;100.00;102072.75;2615858;36;20109;-57
2022/07/14 07:09:02;;;;;;;6.25;1.50;;;;;;;19.61;100.00;102064.31;2615634;36;20598;-57
2022/07/14 07:11:31;;;;;;;5.30;1.50;;;;;;;19.38;100.00;102068.69;2615162;36;20042;-57
2022/07/14 07:13:59;;;;;;;6.70;1.25;;;;;;;19.33;100.00;102060.13;2614540;31;20133;-57
2022/07/14 07:16:28;;;;;;;6.40;1.50;;;;;;;19.42;100.00;102059.16;2609860;36;20593;-56
2022/07/14 07:18:59;;;;;;;4.43;1.40;;;;;;;19.26;100.00;102057.22;2614965;36;20058;-57
2022/07/14 07:21:27;;;;;;;4.30;1.67;;;;;;;19.48;100.00;102063.06;2615180;36;20034;-57
2022/07/14 07:23:56;;;;;;;7.00;1.65;;;;;;;18.91;100.00;102065.38;2614747;36;20106;-60
2022/07/14 07:26:25;;;;;;;7.05;1.92;;;;;;;18.74;100.00;102055.34;2615330;36;20431;-59
2022/07/14 07:28:54;;;;;;;6.80;1.40;;;;;;;19.28;100.00;102057.06;2614805;36;20575;-58
2022/07/14 07:31:23;;;;;;;;;;;;;;;19.18;100.00;102057.16;2615203;36;20142;-57
2022/07/14 07:33:51;;;;;;;;;;;;;;;19.59;100.00;102054.59;2614865;36;19950;-62
2022/07/14 07:36:22;;;;;;;3.85;1.13;;;;;;;19.58;100.00;102053.75;2614606;36;19957;-58
2022/07/14 07:38:51;;;;;;;7.70;1.55;;;;;;;20.13;100.00;102048.72;2614754;31;20022;-58
2022/07/14 07:41:19;;;;;;;6.07;1.38;;;;;;;20.05;100.00;102054.19;2614749;31;20045;-58
2022/07/14 07:43:47;;;;;;;4.70;1.88;;;;;;;20.18;100.00;102049.06;2615129;31;20053;-59
2022/07/14 07:46:16;;;;;;;7.88;1.65;;;;;;;19.28;100.00;102046.13;2615424;31;20502;-57
2022/07/14 07:48:44;;;;;;;4.85;1.52;;;;;;;19.69;100.00;102041.63;2615916;36;20085;-60
2022/07/14 07:51:13;;;;;;;3.72;1.00;;;;;;;19.90;100.00;102041.19;2615620;36;20034;-59
2022/07/14 07:53:44;;;;;;;6.03;1.23;;;;;;;20.26;100.00;102038.13;2615505;36;20041;-58
2022/07/14 07:56:13;;;;;;;3.90;1.10;;;;;;;20.37;100.00;102027.88;2615824;36;20455;-60
2022/07/14 07:58:41;;;;;;;7.45;1.15;;;;;;;20.46;100.00;102030.44;2616435;36;20440;-58
2022/07/14 08:01:09;;;;;;;1.55;0.82;;;;;;;20.95;100.00;102028.63;2615905;36;20122;-59
2022/07/14 08:03:38;;;;;;;8.52;1.15;;;;;;;21.44;100.00;102027.56;2615742;36;20030;-57
2022/07/14 08:06:07;;;;;;;4.97;0.95;;;;;;;20.81;100.00;102030.22;2615398;36;20034;-59
2022/07/14 08:08:36;;;;;;;4.95;1.27;;;;;;;20.06;100.00;102028.56;2615459;36;20158;-58
2022/07/14 08:11:07;;;;;;;3.90;1.20;;;;;;;19.97;100.00;102027.72;2614865;36;20038;-59
2022/07/14 08:13:35;;;;;;;2.75;1.15;;;;;;;20.47;100.00;102031.28;2614832;36;20031;-60
2022/07/14 08:16:04;;;;;;;5.10;1.20;;;;;;;21.10;100.00;102026.88;2614974;36;20049;-60
2022/07/14 08:18:32;;;;;;;4.88;1.27;;;;;;;21.44;100.00;102033.03;2614770;36;20041;-59
2022/07/14 08:21:01;;;;;;;4.30;0.98;;;;;;;21.95;100.00;102033.44;2615592;36;20035;-60
2022/07/14 08:23:29;;;;;;;6.75;1.17;;;;;;;21.51;100.00;102029.44;2615735;36;20540;-58
2022/07/14 08:25:57;;;;;;;3.25;1.30;;;;;;;20.89;100.00;102035.69;2615488;36;20065;-58
2022/07/14 08:28:34;;;;;;;5.22;1.33;;;;;;;20.96;100.00;102030.34;2615887;36;20035;-57
2022/07/14 08:31:02;;;;;;;4.43;1.23;;;;;;;21.31;100.00;102022.66;2615789;36;20023;-57
2022/07/14 08:33:31;;;;;;;4.00;1.20;;;;;;;21.37;100.00;102026.56;2615591;36;20046;-55
2022/07/14 08:35:59;;;;;;;2.50;0.98;;;;;;;21.19;100.00;102024.94;2615682;36;20034;-57
2022/07/14 08:38:28;;;;;;;4.22;1.27;;;;;;;21.44;100.00;102022.94;2615402;36;20081;-59
2022/07/14 08:40:56;;;;;;;3.50;1.23;;;;;;;21.17;100.00;102013.31;2615438;36;20038;-58
2022/07/14 08:43:24;;;;;;;2.78;1.23;;;;;;;21.13;100.00;102017.44;2615689;36;20041;-58
2022/07/14 08:45:55;;;;;;;4.47;1.30;;;;;;;21.48;100.00;102016.06;2615793;36;20034;-57
2022/07/14 08:48:24;;;;;;;4.30;1.02;;;;;;;21.43;100.00;102009.41;2615508;31;20039;-57
2022/07/14 08:50:54;;;;;;;5.35;0.88;;;;;;;21.48;100.00;102015.19;2615831;31;20053;-58
2022/07/14 08:53:22;;;;;;;4.60;1.38;;;;;;;21.14;100.00;102005.44;2615341;36;20555;-57
2022/07/14 08:55:51;;;;;;;4.88;1.23;;;;;;;21.43;100.00;102007.53;2615654;36;20022;-58
2022/07/14 08:58:19;;;;;;;;;;;;;;;21.44;100.00;102014.72;2615596;36;20035;-57
2022/07/14 09:00:48;;;;;;;3.63;1.30;;;;;;;21.39;100.00;102011.66;2616030;36;20013;-59
2022/07/14 09:03:19;;;;;;;6.32;1.27;;;;;;;21.14;100.00;102010.91;2615403;36;20061;-58
2022/07/14 09:05:48;;;;;;;4.65;1.02;;;;;;;21.55;100.00;102010.72;2615638;31;20026;-59
2022/07/14 09:08:17;;;;;;;2.60;1.10;;;;;;;21.96;100.00;102013.19;2615427;36;20038;-58
2022/07/14 09:10:47;;;;;;;8.80;1.17;;;;;;;22.17;100.00;102014.38;2616016;31;20408;-60
2022/07/14 09:13:19;;;;;;;3.35;1.05;;;;;;;22.21;100.00;102018.47;2615883;36;20405;-55
2022/07/14 09:15:47;;;;;;;4.38;1.15;;;;;;;22.18;100.00;102021.59;2615730;31;20057;-57
2022/07/14 09:18:26;;;;;;;4.95;1.05;;;;;;;22.42;100.00;102015.03;2615573;36;20027;-58
2022/07/14 09:20:55;;;;;;;;;;;;;;;22.34;100.00;102015.97;2616021;36;20034;-58
2022/07/14 09:23:30;;;;;;;4.35;0.82;;;;;;;21.99;100.00;102014.72;2615811;36;20430;-59
2022/07/14 09:26:12;;;;;;;4.38;1.48;;;;;;;22.70;100.00;102017.16;2615368;36;20038;-59
2022/07/14 09:28:42;;;;;;;4.22;1.17;;;;;;;22.84;100.00;102019.06;2615342;36;20038;-57
2022/07/14 09:31:23;;;;;;;2.55;0.95;;;;;;;23.01;100.00;102014.22;2615530;36;20045;-59
2022/07/14 09:33:56;;;;;;;4.95;1.05;;;;;;;23.14;100.00;102004.47;2615627;36;20181;-60
2022/07/14 09:36:28;;;;;;;3.55;1.27;;;;;;;22.93;100.00;102004.16;2615398;36;20502;-59
2022/07/14 09:39:00;;;;;;;5.38;1.17;;;;;;;23.54;100.00;102003.06;2615262;36;20034;-58
2022/07/14 09:41:29;;;;;;;4.75;1.05;;;;;;;24.16;100.00;102006.22;2616579;36;20432;-57
2022/07/14 09:44:17;;;;;;;3.30;1.00;;;;;;;23.62;100.00;102010.31;2615622;36;20081;-60
2022/07/14 09:46:47;;;;;;;4.18;0.88;;;;;;;24.11;100.00;102011.47;2616900;31;20065;-59
2022/07/14 09:49:19;;;;;;;2.63;0.98;;;;;;;24.13;100.00;102012.97;2615954;36;20045;-59
2022/07/14 09:51:55;;;;;;;2.17;0.80;;;;;;;23.95;100.00;102015.34;2615508;36;20033;-59
2022/07/14 09:54:42;;;;;;;4.63;1.10;;;;;;;23.97;92.04;102013.25;2614901;36;22719;-57
2022/07/14 09:57:20;;;;;;;6.63;1.00;;;;;;;23.08;100.00;101993.16;2615536;36;20038;-58
2022/07/14 09:59:50;;;;;;;3.10;0.98;;;;;;;23.77;99.41;102005.59;2615634;36;20035;-60
2022/07/14 10:02:21;;;;;;;3.72;0.90;;;;;;;24.18;100.00;102008.78;2615374;36;20583;-56
2022/07/14 10:04:54;;;;;;;3.80;1.00;;;;;;;25.15;88.06;101996.91;2615665;36;20539;-57
2022/07/14 10:07:24;;;;;;;3.95;1.10;;;;;;;24.96;82.31;102011.44;2615486;36;20058;-59
2022/07/14 10:10:01;;;;;;;3.97;1.40;;;;;;;24.60;76.90;102007.00;2615986;36;20034;-58
2022/07/14 10:12:30;;;;;;;3.10;0.80;;;;;;;24.61;79.63;102014.19;2615548;36;20022;-57
2022/07/14 10:15:02;;;;;;;5.78;0.98;;;;;;;24.28;90.81;102009.28;2615304;36;20533;-61
2022/07/14 10:17:32;;;;;;;1.75;0.90;;;;;;;23.57;92.50;102012.78;2615234;36;20078;-58
2022/07/14 10:20:06;;;;;;;2.67;0.85;;;;;;;23.78;99.97;102014.72;2615232;36;20052;-61
2022/07/14 10:22:35;;;;;;;2.92;0.85;;;;;;;23.46;93.71;102016.91;2615226;36;20912;-58
2022/07/14 10:25:05;;;;;;;3.25;1.33;;;;;;;23.50;95.89;102012.75;2614981;36;20057;-58
2022/07/14 10:27:34;;;;;;;2.70;1.17;;;;;;;23.46;100.00;102011.41;2615351;36;20030;-58
2022/07/14 10:30:03;;;;;;;3.47;1.45;;;;;;;23.27;100.00;102010.13;2615212;36;20050;-58
2022/07/14 10:32:40;;;;;;;2.10;0.90;;;;;;;23.31;92.96;102011.47;2615208;36;20544;-62
2022/07/14 10:35:30;;;;;;;2.88;0.80;;;;;;;23.71;100.00;102020.13;2615176;36;20783;-63
2022/07/14 10:38:22;;;;;;;3.55;1.10;;;;;;;24.24;100.00;102016.22;2615231;36;20566;-58
2022/07/14 10:41:02;;;;;;;5.05;0.80;;;;;;;23.22;100.00;102016.22;2615380;36;20031;-60
2022/07/14 10:43:51;;;;;;;1.67;0.98;;;;;;;23.08;100.00;102020.63;2615076;36;20039;-59
2022/07/14 10:46:37;;;;;;;4.22;1.00;;;;;;;23.37;100.00;102024.41;2615625;31;20467;-59
2022/07/14 10:49:07;;;;;;;1.27;0.80;;;;;;;24.17;100.00;102020.81;2615370;31;20035;-60
2022/07/14 10:51:45;;;;;;;2.63;0.70;;;;;;;23.97;94.57;102018.75;2615206;36;20035;-58
2022/07/14 10:54:15;;;;;;;1.98;0.65;;;;;;;23.53;94.85;102011.50;2614632;36;20065;-58
2022/07/14 10:56:45;;;;;;;2.65;1.00;;;;;;;24.30;84.90;102023.69;2615196;36;20027;-58
2022/07/14 10:59:35;;;;;;;2.75;1.23;;;;;;;24.18;88.94;102026.13;2615429;36;20554;-59
2022/07/14 11:02:34;;;;;;;2.88;1.00;;;;;;;24.11;90.12;102023.31;2615139;36;20034;-60
2022/07/14 11:05:14;;;;;;;1.85;0.70;;;;;;;24.02;89.75;102021.75;2615163;36;20041;-57
2022/07/14 11:08:11;;;;;;;1.90;0.80;;;;;;;24.58;80.27;102020.09;2615569;36;20408;-58
2022/07/14 11:11:08;;;;;;;1.45;0.70;;;;;;;24.86;74.14;102010.97;2614918;36;20046;-58
2022/07/14 11:13:36;;;;;;;3.58;1.00;;;;;;;24.96;72.00;102012.28;2615246;31;20035;-58
2022/07/14 11:16:06;;;;;;;3.13;0.80;;;;;;;24.40;74.47;102015.94;2615163;36;20081;-61
2022/07/14 11:18:41;;;;;;;1.38;0.70;;;;;;;24.27;74.21;102021.34;2615158;31;20544;-60
2022/07/14 11:21:16;;;;;;;3.20;0.80;;;;;;;23.65;77.41;102015.44;2616163;36;20038;-61
2022/07/14 11:23:57;;;;;;;2.25;0.85;;;;;;;23.97;79.70;102029.75;2615680;36;20034;-59
2022/07/14 11:26:40;;;;;;;1.92;0.63;;;;;;;23.95;83.83;102026.34;2616054;31;20030;-62
2022/07/14 11:29:11;;;;;;;2.45;0.70;;;;;;;24.19;74.17;102029.72;2615907;36;20031;-58
2022/07/14 11:31:47;;;;;;;2.58;0.90;;;;;;;24.08;79.52;102031.94;2615908;36;20034;-57
2022/07/14 11:37:06;;;;;;;1.80;0.63;;;;;;;23.72;83.89;102027.34;2616526;31;20034;-57
2022/07/14 11:39:38;;;;;;;1.70;0.88;;;;;;;24.44;77.86;102031.00;2615790;36;20142;-58
2022/07/14 11:42:08;;;;;;;2.03;0.60;;;;;;;23.21;82.60;102021.91;2616374;36;20479;-58
2022/07/14 11:44:47;;;;;;;2.00;0.57;;;;;;;24.04;85.27;102024.28;2615879;36;20038;-59